createdAt,value
2018-03-25T00:00:33.239Z,6.55
2018-03-25T00:01:33.088Z,6.55
2018-03-25T00:02:33.119Z,6.60
2018-03-25T00:03:32.913Z,6.54
2018-03-25T00:04:32.925Z,6.57
2018-03-25T00:05:32.782Z,6.57
2018-03-25T00:06:32.765Z,6.71
2018-03-25T00:07:32.586Z,6.50
2018-03-25T00:08:32.535Z,6.43
2018-03-25T00:09:32.430Z,6.50
2018-03-25T00:10:32.453Z,6.42
2018-03-25T00:11:32.340Z,6.39
2018-03-25T00:12:32.298Z,6.30
2018-03-25T00:13:32.129Z,6.27
2018-03-25T00:14:32.172Z,6.28
2018-03-25T00:15:31.979Z,6.25
2018-03-25T00:16:31.987Z,6.19
2018-03-25T00:17:31.809Z,6.14
2018-03-25T00:18:31.795Z,6.21
2018-03-25T00:19:31.612Z,6.21
2018-03-25T00:20:31.599Z,6.21
2018-03-25T00:21:31.469Z,6.17
2018-03-25T00:22:31.406Z,6.13
2018-03-25T00:23:31.299Z,6.03
2018-03-25T00:24:31.319Z,6.02
2018-03-25T00:25:31.139Z,6.01
2018-03-25T00:26:31.124Z,6.10
2018-03-25T00:27:30.964Z,6.06
2018-03-25T00:28:30.973Z,6.03
2018-03-25T00:29:30.795Z,5.92
2018-03-25T00:30:30.748Z,5.99
2018-03-25T00:31:30.648Z,5.85
2018-03-25T00:32:30.664Z,5.75
2018-03-25T00:33:30.480Z,5.60
2018-03-25T00:34:30.473Z,5.70
2018-03-25T00:35:30.306Z,5.45
2018-03-25T00:36:30.310Z,5.44
2018-03-25T00:37:30.139Z,5.29
2018-03-25T00:38:30.115Z,5.30
2018-03-25T00:39:29.973Z,5.40
2018-03-25T00:40:30.003Z,5.35
2018-03-25T00:41:29.828Z,5.37
2018-03-25T00:42:29.836Z,5.32
2018-03-25T00:43:29.656Z,5.35
2018-03-25T00:44:29.614Z,5.35
2018-03-25T00:45:29.482Z,5.45
2018-03-25T00:46:29.535Z,5.27
2018-03-25T00:47:29.466Z,5.30
2018-03-25T00:48:29.361Z,5.32
2018-03-25T00:49:29.152Z,5.35
2018-03-25T00:50:29.746Z,5.27
2018-03-25T00:51:28.978Z,5.41
2018-03-25T00:52:28.948Z,5.42
2018-03-25T00:53:28.846Z,5.62
2018-03-25T00:54:28.887Z,5.58
2018-03-25T00:55:28.655Z,5.67
2018-03-25T00:56:28.665Z,5.60
2018-03-25T00:57:28.490Z,5.65
2018-03-25T00:58:28.473Z,5.56
2018-03-25T00:59:28.339Z,5.60
2018-03-25T01:00:28.274Z,5.67
2018-03-25T01:01:28.157Z,5.67
2018-03-25T01:02:28.232Z,5.78
2018-03-25T01:03:27.998Z,5.78
2018-03-25T01:04:28.008Z,5.81
2018-03-25T01:05:27.828Z,5.83
2018-03-25T01:06:27.818Z,5.67
2018-03-25T01:07:27.799Z,5.81
2018-03-25T01:08:27.716Z,5.81
2018-03-25T01:09:27.506Z,5.75
2018-03-25T01:10:27.589Z,5.66
2018-03-25T01:11:27.364Z,5.69
2018-03-25T01:12:27.352Z,5.65
2018-03-25T01:13:27.196Z,5.63
2018-03-25T01:14:27.140Z,5.70
2018-03-25T01:15:27.039Z,5.66
2018-03-25T01:16:27.057Z,5.62
2018-03-25T01:17:26.869Z,5.65
2018-03-25T01:18:26.893Z,5.73
2018-03-25T01:19:26.691Z,5.75
2018-03-25T01:20:26.667Z,5.70
2018-03-25T01:21:26.547Z,5.65
2018-03-25T01:22:26.475Z,5.63
2018-03-25T01:23:26.341Z,5.58
2018-03-25T01:26:08.194Z,5.58
2018-03-25T01:27:08.181Z,5.60
2018-03-25T01:28:08.003Z,5.52
2018-03-25T01:29:07.988Z,5.49
2018-03-25T01:30:07.840Z,5.47
2018-03-25T01:31:07.854Z,5.41
2018-03-25T01:32:07.664Z,5.49
2018-03-25T01:33:07.707Z,5.51
2018-03-25T01:34:07.522Z,5.47
2018-03-25T01:35:07.541Z,5.41
2018-03-25T01:36:07.359Z,5.40
2018-03-25T01:37:07.327Z,5.42
2018-03-25T01:38:07.174Z,5.38
2018-03-25T01:39:07.134Z,5.37
2018-03-25T01:40:07.025Z,5.33
2018-03-25T01:41:07.043Z,5.41
2018-03-25T01:42:06.860Z,5.35
2018-03-25T01:43:06.848Z,5.40
2018-03-25T01:44:06.679Z,5.37
2018-03-25T01:45:06.656Z,5.30
2018-03-25T01:46:06.520Z,5.37
2018-03-25T01:47:06.500Z,5.32
2018-03-25T01:48:06.364Z,5.42
2018-03-25T01:49:06.382Z,5.60
2018-03-25T01:50:06.190Z,5.60
2018-03-25T01:51:06.203Z,5.66
2018-03-25T01:52:06.042Z,5.77
2018-03-25T01:53:05.996Z,5.70
2018-03-25T01:54:05.859Z,5.73
2018-03-25T01:55:05.911Z,5.70
2018-03-25T01:56:05.731Z,5.66
2018-03-25T01:57:05.743Z,5.59
2018-03-25T01:58:05.536Z,5.66
2018-03-25T01:59:05.533Z,5.62
2018-03-25T02:00:05.369Z,5.56
2018-03-25T02:01:05.440Z,5.48
2018-03-25T02:02:05.220Z,5.44
2018-03-25T02:03:05.173Z,5.44
2018-03-25T02:04:05.045Z,5.33
2018-03-25T02:05:05.055Z,5.27
2018-03-25T02:06:05.693Z,5.27
2018-03-25T02:07:04.880Z,5.30
2018-03-25T02:08:04.726Z,5.30
2018-03-25T02:09:04.669Z,5.30
2018-03-25T02:10:04.542Z,5.30
2018-03-25T02:11:04.582Z,5.35
2018-03-25T02:12:04.377Z,5.23
2018-03-25T02:13:04.429Z,5.23
2018-03-25T02:14:04.208Z,5.09
2018-03-25T02:15:04.197Z,5.06
2018-03-25T02:16:04.052Z,4.93
2018-03-25T02:17:04.010Z,4.77
2018-03-25T02:18:03.905Z,4.84
2018-03-25T02:19:03.916Z,4.86
2018-03-25T02:20:03.733Z,4.75
2018-03-25T02:21:03.726Z,4.71
2018-03-25T02:22:03.576Z,4.65
2018-03-25T02:23:03.557Z,4.65
2018-03-25T02:24:03.396Z,4.51
2018-03-25T02:25:03.352Z,4.67
2018-03-25T02:26:03.236Z,4.57
2018-03-25T02:27:03.253Z,4.57
2018-03-25T02:28:03.078Z,4.51
2018-03-25T02:29:03.089Z,4.47
2018-03-25T02:30:02.891Z,4.46
2018-03-25T02:31:02.870Z,4.43
2018-03-25T02:32:02.737Z,4.39
2018-03-25T02:33:02.706Z,4.46
2018-03-25T02:34:02.575Z,4.38
2018-03-25T02:35:02.583Z,4.36
2018-03-25T02:36:02.405Z,4.34
2018-03-25T02:37:02.395Z,4.44
2018-03-25T02:38:02.239Z,4.38
2018-03-25T02:39:02.237Z,4.29
2018-03-25T02:40:02.748Z,4.24
2018-03-25T02:41:02.116Z,4.36
2018-03-25T02:42:01.905Z,4.36
2018-03-25T02:43:01.945Z,4.36
2018-03-25T02:44:01.779Z,4.42
2018-03-25T02:45:01.732Z,4.36
2018-03-25T02:46:01.583Z,4.35
2018-03-25T02:47:01.539Z,4.43
2018-03-25T02:48:01.404Z,4.36
2018-03-25T02:49:01.380Z,4.32
2018-03-25T02:50:01.295Z,4.35
2018-03-25T02:51:01.258Z,4.32
2018-03-25T02:52:01.080Z,4.35
2018-03-25T02:53:01.082Z,4.34
2018-03-25T02:54:00.918Z,4.26
2018-03-25T02:55:00.918Z,4.26
2018-03-25T02:56:00.750Z,4.25
2018-03-25T02:57:00.784Z,4.28
2018-03-25T02:58:00.580Z,4.25
2018-03-25T02:59:00.599Z,4.18
2018-03-25T03:00:01.265Z,4.28
2018-03-25T03:01:00.436Z,4.26
2018-03-25T03:02:00.250Z,4.26
2018-03-25T03:03:00.237Z,4.32
2018-03-25T03:04:00.092Z,4.25
2018-03-25T03:05:00.071Z,4.20
2018-03-25T03:05:59.938Z,4.21
2018-03-25T03:06:59.934Z,4.20
2018-03-25T03:07:59.759Z,4.18
2018-03-25T03:08:59.743Z,4.14
2018-03-25T03:09:59.585Z,4.11
2018-03-25T03:10:59.591Z,4.14
2018-03-25T03:11:59.426Z,4.04
2018-03-25T03:12:59.466Z,4.18
2018-03-25T03:13:59.302Z,4.10
2018-03-25T03:16:41.195Z,4.08
2018-03-25T03:17:41.162Z,4.11
2018-03-25T03:18:41.015Z,4.11
2018-03-25T03:19:40.968Z,4.13
2018-03-25T03:20:40.853Z,4.13
2018-03-25T03:21:40.926Z,4.06
2018-03-25T03:22:40.679Z,4.07
2018-03-25T03:23:40.710Z,4.02
2018-03-25T03:24:40.513Z,3.95
2018-03-25T03:25:40.507Z,3.86
2018-03-25T03:26:40.395Z,3.90
2018-03-25T03:27:40.353Z,4.00
2018-03-25T03:28:40.185Z,3.98
2018-03-25T03:29:40.212Z,3.98
2018-03-25T03:30:40.047Z,3.81
2018-03-25T03:31:40.071Z,3.81
2018-03-25T03:32:39.866Z,3.84
2018-03-25T03:33:39.936Z,3.75
2018-03-25T03:34:39.699Z,3.75
2018-03-25T03:35:39.654Z,3.82
2018-03-25T03:36:39.519Z,3.77
2018-03-25T03:37:39.598Z,3.72
2018-03-25T03:38:39.360Z,3.72
2018-03-25T03:39:39.360Z,3.70
2018-03-25T03:40:39.190Z,3.70
2018-03-25T03:41:39.169Z,3.72
2018-03-25T03:42:39.039Z,3.75
2018-03-25T03:43:38.987Z,3.67
2018-03-25T03:44:38.872Z,3.72
2018-03-25T03:47:20.699Z,3.71
2018-03-25T03:48:20.684Z,3.71
2018-03-25T03:49:20.510Z,3.68
2018-03-25T03:50:20.490Z,3.77
2018-03-25T03:51:20.347Z,3.75
2018-03-25T03:52:20.342Z,3.75
2018-03-25T03:53:20.196Z,3.71
2018-03-25T03:54:20.206Z,3.64
2018-03-25T03:55:20.014Z,3.68
2018-03-25T03:56:20.020Z,3.67
2018-03-25T03:57:19.970Z,3.74
2018-03-25T03:58:19.826Z,3.60
2018-03-25T03:59:19.692Z,3.64
2018-03-25T04:00:19.641Z,3.63
2018-03-25T04:01:19.522Z,3.70
2018-03-25T04:02:19.560Z,3.77
2018-03-25T04:03:19.369Z,3.67
2018-03-25T04:04:19.356Z,3.56
2018-03-25T04:05:19.198Z,3.67
2018-03-25T04:06:19.157Z,3.60
2018-03-25T04:07:19.034Z,3.64
2018-03-25T04:08:19.002Z,3.64
2018-03-25T04:09:18.914Z,3.63
2018-03-25T04:10:18.897Z,3.56
2018-03-25T04:11:18.710Z,3.56
2018-03-25T04:12:18.684Z,3.45
2018-03-25T04:13:18.533Z,3.45
2018-03-25T04:14:18.502Z,3.56
2018-03-25T04:15:18.365Z,3.50
2018-03-25T04:16:18.411Z,3.52
2018-03-25T04:17:18.203Z,3.45
2018-03-25T04:18:18.245Z,3.39
2018-03-25T04:19:18.033Z,3.42
2018-03-25T04:20:18.132Z,3.37
2018-03-25T04:21:17.865Z,3.37
2018-03-25T04:22:17.829Z,3.42
2018-03-25T04:23:17.719Z,3.49
2018-03-25T04:24:17.692Z,3.34
2018-03-25T04:25:17.534Z,3.49
2018-03-25T04:26:17.546Z,3.39
2018-03-25T04:27:17.367Z,3.26
2018-03-25T04:28:17.356Z,3.35
2018-03-25T04:29:17.215Z,3.35
2018-03-25T04:30:17.164Z,3.41
2018-03-25T04:31:17.032Z,3.33
2018-03-25T04:32:17.083Z,3.16
2018-03-25T04:33:16.898Z,3.16
2018-03-25T04:34:16.885Z,3.12
2018-03-25T04:35:16.709Z,3.16
2018-03-25T04:36:16.698Z,3.12
2018-03-25T04:37:16.536Z,3.08
2018-03-25T04:38:16.504Z,2.89
2018-03-25T04:39:16.387Z,3.01
2018-03-25T04:40:16.411Z,3.02
2018-03-25T04:41:16.222Z,2.92
2018-03-25T04:42:16.218Z,2.98
2018-03-25T04:43:16.040Z,2.97
2018-03-25T04:44:16.061Z,2.90
2018-03-25T04:45:15.872Z,2.86
2018-03-25T04:46:15.835Z,2.94
2018-03-25T04:47:15.746Z,2.87
2018-03-25T04:48:15.745Z,2.83
2018-03-25T04:49:15.567Z,2.87
2018-03-25T04:50:15.566Z,2.87
2018-03-25T04:51:15.380Z,2.90
2018-03-25T04:52:15.366Z,2.90
2018-03-25T04:53:15.207Z,2.94
2018-03-25T04:54:15.175Z,2.87
2018-03-25T04:55:15.058Z,2.81
2018-03-25T04:56:15.082Z,2.86
2018-03-25T04:57:14.870Z,2.95
2018-03-25T04:58:14.951Z,2.84
2018-03-25T04:59:14.709Z,2.80
2018-03-25T05:00:14.731Z,2.87
2018-03-25T05:01:14.540Z,2.95
2018-03-25T05:02:14.515Z,2.99
2018-03-25T05:03:14.385Z,3.04
2018-03-25T05:04:14.424Z,3.08
2018-03-25T05:05:14.208Z,3.15
2018-03-25T05:06:14.270Z,3.13
2018-03-25T05:07:14.054Z,3.12
2018-03-25T05:08:14.041Z,3.15
2018-03-25T05:09:13.873Z,3.12
2018-03-25T05:10:13.962Z,3.15
2018-03-25T05:11:13.704Z,3.19
2018-03-25T05:12:13.655Z,3.31
2018-03-25T05:13:13.560Z,3.17
2018-03-25T05:14:13.565Z,3.23
2018-03-25T05:15:13.375Z,3.15
2018-03-25T05:16:13.372Z,3.19
2018-03-25T05:17:13.218Z,3.22
2018-03-25T05:18:13.218Z,3.16
2018-03-25T05:19:13.047Z,3.16
2018-03-25T05:20:13.198Z,3.13
2018-03-25T05:21:12.891Z,3.10
2018-03-25T05:22:12.903Z,3.10
2018-03-25T05:23:12.730Z,3.04
2018-03-25T05:24:12.711Z,3.10
2018-03-25T05:25:12.558Z,3.15
2018-03-25T05:26:12.552Z,3.01
2018-03-25T05:27:12.370Z,2.95
2018-03-25T05:28:12.327Z,3.01
2018-03-25T05:29:12.231Z,3.02
2018-03-25T05:30:12.242Z,3.05
2018-03-25T05:31:12.062Z,3.13
2018-03-25T05:32:12.049Z,3.19
2018-03-25T05:33:11.883Z,3.19
2018-03-25T05:34:11.868Z,3.17
2018-03-25T05:35:11.712Z,3.26
2018-03-25T05:36:11.699Z,3.19
2018-03-25T05:37:11.552Z,3.25
2018-03-25T05:38:11.581Z,3.26
2018-03-25T05:39:11.382Z,3.28
2018-03-25T05:40:11.403Z,3.26
2018-03-25T05:41:11.215Z,3.28
2018-03-25T05:42:11.289Z,3.39
2018-03-25T05:43:11.044Z,3.28
2018-03-25T05:44:11.100Z,3.44
2018-03-25T05:45:10.873Z,3.41
2018-03-25T05:46:11.773Z,3.52
2018-03-25T05:47:10.727Z,3.42
2018-03-25T05:48:10.791Z,3.53
2018-03-25T05:49:10.572Z,3.46
2018-03-25T05:50:10.601Z,3.41
2018-03-25T05:51:10.381Z,3.42
2018-03-25T05:52:10.419Z,3.39
2018-03-25T05:53:10.214Z,3.34
2018-03-25T05:54:10.351Z,3.26
2018-03-25T05:55:10.048Z,3.19
2018-03-25T05:56:10.131Z,3.16
2018-03-25T05:57:09.970Z,3.20
2018-03-25T05:59:51.718Z,3.20
2018-03-25T06:00:51.754Z,3.10
2018-03-25T06:01:51.529Z,3.12
2018-03-25T06:02:51.640Z,3.08
2018-03-25T06:03:51.378Z,3.15
2018-03-25T06:08:57.351Z,3.20
2018-03-25T06:09:57.131Z,3.23
2018-03-25T06:10:57.242Z,3.60
2018-03-25T06:11:56.948Z,3.56
2018-03-25T06:12:57.041Z,3.56
2018-03-25T06:13:56.804Z,3.60
2018-03-25T06:14:56.873Z,3.52
2018-03-25T06:15:56.661Z,3.45
2018-03-25T06:16:56.654Z,3.44
2018-03-25T06:17:56.464Z,3.62
2018-03-25T06:18:56.582Z,3.60
2018-03-25T06:19:56.297Z,3.71
2018-03-25T06:20:56.371Z,3.67
2018-03-25T06:21:56.108Z,3.59
2018-03-25T06:22:56.287Z,3.72
2018-03-25T06:23:55.958Z,3.98
2018-03-25T06:24:56.533Z,4.06
2018-03-25T06:25:55.788Z,4.04
2018-03-25T06:28:37.700Z,3.72
2018-03-25T06:29:37.832Z,3.80
2018-03-25T06:30:37.565Z,4.07
2018-03-25T06:31:37.604Z,4.25
2018-03-25T06:32:37.377Z,4.07
2018-03-25T06:35:19.220Z,4.36
2018-03-25T06:36:19.312Z,4.31
2018-03-25T06:37:19.110Z,4.08
2018-03-25T06:38:19.123Z,4.42
2018-03-25T06:39:18.862Z,4.79
2018-03-25T06:40:21.013Z,4.68
2018-03-25T06:41:18.701Z,4.86
2018-03-25T06:42:18.654Z,4.90
2018-03-25T06:43:18.531Z,4.86
2018-03-25T06:44:18.579Z,4.88
2018-03-25T06:45:18.389Z,4.65
2018-03-25T06:46:18.424Z,4.84
2018-03-25T06:47:18.213Z,4.84
2018-03-25T06:48:18.181Z,4.44
2018-03-25T06:49:18.036Z,4.69
2018-03-25T06:50:17.997Z,4.83
2018-03-25T06:51:17.889Z,4.80
2018-03-25T06:52:17.897Z,5.01
2018-03-25T06:53:17.713Z,4.80
2018-03-25T06:54:17.706Z,4.57
2018-03-25T06:55:17.537Z,4.59
2018-03-25T06:56:17.541Z,4.65
2018-03-25T06:57:17.419Z,4.91
2018-03-25T06:58:17.326Z,5.51
2018-03-25T06:59:17.212Z,6.03
2018-03-25T07:00:17.243Z,6.01
2018-03-25T07:01:17.056Z,5.87
2018-03-25T07:02:17.075Z,6.10
2018-03-25T07:03:16.877Z,6.93
2018-03-25T07:04:16.854Z,7.39
2018-03-25T07:05:16.709Z,7.63
2018-03-25T07:06:16.770Z,8.14
2018-03-25T07:07:16.570Z,8.58
2018-03-25T07:08:16.583Z,8.83
2018-03-25T07:09:16.389Z,8.36
2018-03-25T07:10:16.381Z,8.64
2018-03-25T07:11:16.223Z,8.65
2018-03-25T07:12:16.222Z,8.29
2018-03-25T07:13:16.064Z,8.36
2018-03-25T07:14:16.100Z,8.63
2018-03-25T07:15:15.902Z,8.54
2018-03-25T07:16:15.934Z,8.60
2018-03-25T07:17:15.752Z,8.52
2018-03-25T07:18:15.714Z,8.50
2018-03-25T07:19:15.583Z,8.64
2018-03-25T07:20:15.520Z,8.78
2018-03-25T07:21:15.413Z,8.83
2018-03-25T07:22:15.474Z,9.23
2018-03-25T07:23:15.260Z,9.42
2018-03-25T07:24:15.256Z,10.43
2018-03-25T07:25:15.094Z,10.72
2018-03-25T07:26:15.053Z,11.33
2018-03-25T07:27:14.952Z,11.60
2018-03-25T07:28:14.985Z,11.74
2018-03-25T07:29:14.771Z,11.82
2018-03-25T07:30:14.815Z,11.97
2018-03-25T07:31:14.610Z,11.67
2018-03-25T07:32:14.585Z,12.00
2018-03-25T07:33:14.498Z,12.15
2018-03-25T07:34:14.491Z,11.97
2018-03-25T07:35:14.290Z,12.55
2018-03-25T07:36:14.310Z,12.89
2018-03-25T07:37:14.131Z,13.44
2018-03-25T07:38:14.142Z,13.68
2018-03-25T07:39:13.984Z,14.01
2018-03-25T07:40:14.041Z,13.94
2018-03-25T07:41:13.820Z,13.91
2018-03-25T07:42:13.858Z,14.26
2018-03-25T07:43:13.691Z,14.36
2018-03-25T07:44:13.673Z,14.35
2018-03-25T07:45:13.509Z,14.29
2018-03-25T07:46:13.557Z,14.44
2018-03-25T07:47:13.349Z,14.46
2018-03-25T07:48:13.419Z,14.09
2018-03-25T07:49:13.193Z,13.71
2018-03-25T07:50:13.166Z,13.17
2018-03-25T07:51:13.037Z,13.61
2018-03-25T07:52:13.088Z,14.17
2018-03-25T07:53:12.902Z,14.67
2018-03-25T07:54:12.885Z,14.75
2018-03-25T07:55:12.728Z,15.09
2018-03-25T07:56:12.696Z,15.48
2018-03-25T07:57:12.573Z,15.37
2018-03-25T07:58:12.629Z,14.75
2018-03-25T07:59:12.408Z,14.74
2018-03-25T08:00:12.412Z,14.93
2018-03-25T08:01:12.304Z,15.35
2018-03-25T08:02:12.224Z,15.25
2018-03-25T08:03:12.138Z,14.87
2018-03-25T08:04:12.133Z,14.93
2018-03-25T08:05:11.946Z,14.52
2018-03-25T08:06:11.940Z,14.75
2018-03-25T08:07:11.782Z,14.67
2018-03-25T08:08:11.756Z,14.31
2018-03-25T08:09:11.756Z,14.39
2018-03-25T08:10:11.661Z,14.74
2018-03-25T08:11:11.474Z,14.61
2018-03-25T08:12:11.563Z,14.91
2018-03-25T08:13:11.323Z,15.00
2018-03-25T08:14:11.312Z,15.01
2018-03-25T08:15:11.185Z,14.48
2018-03-25T08:16:11.221Z,15.00
2018-03-25T08:17:11.016Z,15.33
2018-03-25T08:18:10.990Z,15.59
2018-03-25T08:19:10.892Z,16.08
2018-03-25T08:20:10.906Z,15.95
2018-03-25T08:21:10.703Z,15.59
2018-03-25T08:22:10.711Z,15.23
2018-03-25T08:23:10.555Z,15.15
2018-03-25T08:24:10.556Z,15.33
2018-03-25T08:25:10.395Z,15.35
2018-03-25T08:26:10.429Z,16.37
2018-03-25T08:27:10.296Z,16.14
2018-03-25T08:28:10.234Z,15.92
2018-03-25T08:29:10.109Z,16.44
2018-03-25T08:30:10.084Z,16.69
2018-03-25T08:31:09.941Z,16.78
2018-03-25T08:32:10.062Z,16.45
2018-03-25T08:33:09.830Z,16.32
2018-03-25T08:35:51.759Z,16.13
2018-03-25T08:36:51.769Z,16.70
2018-03-25T08:37:51.574Z,17.20
2018-03-25T08:38:51.574Z,16.32
2018-03-25T08:39:51.486Z,16.48
2018-03-25T08:40:51.417Z,16.85
2018-03-25T08:41:51.264Z,16.92
2018-03-25T08:42:51.287Z,17.30
2018-03-25T08:43:51.113Z,17.66
2018-03-25T08:44:51.098Z,17.49
2018-03-25T08:45:50.990Z,17.65
2018-03-25T08:46:51.014Z,17.96
2018-03-25T08:47:50.822Z,17.73
2018-03-25T08:48:50.816Z,17.39
2018-03-25T08:49:50.680Z,17.68
2018-03-25T08:50:50.762Z,17.91
2018-03-25T08:51:50.535Z,17.91
2018-03-25T08:52:50.536Z,17.71
2018-03-25T08:53:50.372Z,17.81
2018-03-25T08:54:50.384Z,17.96
2018-03-25T08:55:50.275Z,17.46
2018-03-25T08:56:50.334Z,17.51
2018-03-25T08:57:50.084Z,17.49
2018-03-25T08:58:50.119Z,17.65
2018-03-25T08:59:49.921Z,17.73
2018-03-25T09:00:49.874Z,17.65
2018-03-25T09:01:49.779Z,17.68
2018-03-25T09:02:49.786Z,17.76
2018-03-25T09:03:49.641Z,17.86
2018-03-25T09:06:31.752Z,17.94
2018-03-25T09:07:31.797Z,18.20
2018-03-25T09:08:31.607Z,18.54
2018-03-25T09:09:31.600Z,18.41
2018-03-25T09:10:31.477Z,18.29
2018-03-25T09:11:31.433Z,17.99
2018-03-25T09:12:31.314Z,18.14
2018-03-25T09:13:31.331Z,18.46
2018-03-25T09:14:31.170Z,18.60
2018-03-25T09:15:31.134Z,18.62
2018-03-25T09:16:31.001Z,18.59
2018-03-25T09:17:31.100Z,18.56
2018-03-25T09:18:30.868Z,18.14
2018-03-25T09:19:30.859Z,17.58
2018-03-25T09:20:30.716Z,18.39
2018-03-25T09:21:30.767Z,18.72
2018-03-25T09:22:30.593Z,18.46
2018-03-25T09:23:30.569Z,18.53
2018-03-25T09:24:30.513Z,18.71
2018-03-25T09:25:30.477Z,18.42
2018-03-25T09:26:30.277Z,18.75
2018-03-25T09:27:30.298Z,19.15
2018-03-25T09:28:30.130Z,19.15
2018-03-25T09:29:30.235Z,18.57
2018-03-25T09:30:30.007Z,19.09
2018-03-25T09:33:12.246Z,18.96
2018-03-25T09:34:12.314Z,19.07
2018-03-25T09:35:12.130Z,19.42
2018-03-25T09:36:12.134Z,19.62
2018-03-25T09:37:11.980Z,19.42
2018-03-25T09:38:11.961Z,19.53
2018-03-25T09:39:11.816Z,19.50
2018-03-25T09:40:11.846Z,19.28
2018-03-25T09:41:11.691Z,19.23
2018-03-25T09:42:11.657Z,19.05
2018-03-25T09:43:11.540Z,19.20
2018-03-25T09:44:11.566Z,18.99
2018-03-25T09:45:11.397Z,18.68
2018-03-25T09:46:12.431Z,18.84
2018-03-25T09:47:11.243Z,19.30
2018-03-25T09:48:11.281Z,19.68
2018-03-25T09:49:11.099Z,20.13
2018-03-25T09:50:11.102Z,20.40
2018-03-25T09:51:10.966Z,20.69
2018-03-25T09:52:11.025Z,20.63
2018-03-25T09:53:10.819Z,20.85
2018-03-25T09:54:11.871Z,21.01
2018-03-25T09:55:10.672Z,20.19
2018-03-25T09:56:10.772Z,19.32
2018-03-25T09:57:10.559Z,19.70
2018-03-25T09:58:10.539Z,19.78
2018-03-25T09:59:10.408Z,20.16
2018-03-25T10:00:10.433Z,19.79
2018-03-25T10:01:10.280Z,19.53
2018-03-25T10:02:10.282Z,19.58
2018-03-25T10:03:10.121Z,19.97
2018-03-25T10:04:10.181Z,19.85
2018-03-25T10:05:09.990Z,19.46
2018-03-25T10:06:09.968Z,20.33
2018-03-25T10:07:09.844Z,20.25
2018-03-25T10:08:09.879Z,20.71
2018-03-25T10:09:09.772Z,21.27
2018-03-25T10:10:09.706Z,21.26
2018-03-25T10:11:09.562Z,21.03
2018-03-25T10:12:09.594Z,21.08
2018-03-25T10:13:09.544Z,20.30
2018-03-25T10:14:09.455Z,20.37
2018-03-25T10:15:09.279Z,19.94
2018-03-25T10:16:09.337Z,20.50
2018-03-25T10:17:09.142Z,20.71
2018-03-25T10:19:51.300Z,20.81
2018-03-25T10:20:51.466Z,20.56
2018-03-25T10:21:51.266Z,19.70
2018-03-25T10:22:51.131Z,20.00
2018-03-25T10:23:50.992Z,20.72
2018-03-25T10:24:51.065Z,20.81
2018-03-25T10:25:50.882Z,21.51
2018-03-25T10:26:50.844Z,21.59
2018-03-25T10:27:50.721Z,21.19
2018-03-25T10:28:50.779Z,21.01
2018-03-25T10:29:50.616Z,21.61
2018-03-25T10:30:50.571Z,20.93
2018-03-25T10:31:50.556Z,21.11
2018-03-25T10:32:50.488Z,21.24
2018-03-25T10:33:50.311Z,21.27
2018-03-25T10:34:50.441Z,21.26
2018-03-25T10:35:50.169Z,21.40
2018-03-25T10:36:50.224Z,21.05
2018-03-25T10:37:50.041Z,20.58
2018-03-25T10:38:50.000Z,19.55
2018-03-25T10:39:49.906Z,18.57
2018-03-25T10:40:49.917Z,18.28
2018-03-25T10:41:49.768Z,18.31
2018-03-25T10:42:49.729Z,18.50
2018-03-25T10:43:49.633Z,17.58
2018-03-25T10:44:49.668Z,17.81
2018-03-25T10:45:49.526Z,17.20
2018-03-25T10:46:49.553Z,17.58
2018-03-25T10:47:49.347Z,18.41
2018-03-25T10:48:49.373Z,18.62
2018-03-25T10:49:49.250Z,18.75
2018-03-25T10:50:49.264Z,18.68
2018-03-25T10:51:49.081Z,18.84
2018-03-25T10:52:49.088Z,19.55
2018-03-25T10:53:48.941Z,20.57
2018-03-25T10:56:30.822Z,20.73
2018-03-25T10:57:30.823Z,20.34
2018-03-25T10:58:30.683Z,19.79
2018-03-25T10:59:30.684Z,19.82
2018-03-25T11:00:30.525Z,19.30
2018-03-25T11:01:30.495Z,19.10
2018-03-25T11:02:30.380Z,19.10
2018-03-25T11:03:30.318Z,19.79
2018-03-25T11:04:30.247Z,19.17
2018-03-25T11:05:30.244Z,19.20
2018-03-25T11:06:30.121Z,19.43
2018-03-25T11:07:30.231Z,19.67
2018-03-25T11:08:29.973Z,20.22
2018-03-25T11:09:29.936Z,20.33
2018-03-25T11:10:29.808Z,19.13
2018-03-25T11:11:29.849Z,19.09
2018-03-25T11:24:53.130Z,20.60
2018-03-25T11:25:52.995Z,21.00
2018-03-25T11:26:53.037Z,20.98
2018-03-25T11:27:52.826Z,20.79
2018-03-25T11:28:52.818Z,20.57
2018-03-25T11:29:52.691Z,20.31
2018-03-25T11:30:52.751Z,20.71
2018-03-25T11:31:52.624Z,20.71
2018-03-25T11:32:52.474Z,21.03
2018-03-25T11:33:52.402Z,20.58
2018-03-25T11:34:52.420Z,20.93
2018-03-25T11:35:52.254Z,21.19
2018-03-25T11:36:52.261Z,20.79
2018-03-25T11:37:52.201Z,21.03
2018-03-25T11:38:52.141Z,21.05
2018-03-25T11:39:51.988Z,21.26
2018-03-25T11:40:51.943Z,20.34
2018-03-25T11:41:51.902Z,18.62
2018-03-25T11:42:51.779Z,17.33
2018-03-25T11:43:51.712Z,16.54
2018-03-25T11:44:51.779Z,16.44
2018-03-25T11:45:51.572Z,16.91
2018-03-25T11:46:51.686Z,17.73
2018-03-25T11:47:51.465Z,17.83
2018-03-25T11:48:51.398Z,18.71
2018-03-25T11:49:51.335Z,19.31
2018-03-25T11:50:51.337Z,19.47
2018-03-25T11:51:51.151Z,19.53
2018-03-25T11:52:51.106Z,19.46
2018-03-25T11:53:51.008Z,19.27
2018-03-25T11:54:51.019Z,19.58
2018-03-25T11:55:50.894Z,20.64
2018-03-25T11:56:50.828Z,20.72
2018-03-25T11:57:50.748Z,21.30
2018-03-25T11:58:50.737Z,21.51
2018-03-25T11:59:50.597Z,20.72
2018-03-25T12:00:50.541Z,20.07
2018-03-25T12:01:50.461Z,20.48
2018-03-25T12:02:50.459Z,20.75
2018-03-25T12:03:50.356Z,20.56
2018-03-25T12:04:50.394Z,20.69
2018-03-25T12:05:50.235Z,20.53
2018-03-25T12:06:50.184Z,19.72
2018-03-25T12:07:50.040Z,18.79
2018-03-25T12:08:50.094Z,18.02
2018-03-25T12:09:49.910Z,18.11
2018-03-25T12:10:49.892Z,18.62
2018-03-25T12:11:49.754Z,18.19
2018-03-25T12:12:49.692Z,18.69
2018-03-25T12:13:49.618Z,19.21
2018-03-25T12:14:49.666Z,18.72
2018-03-25T12:15:49.505Z,19.35
2018-03-25T12:16:49.413Z,19.87
2018-03-25T12:17:49.339Z,19.71
2018-03-25T12:18:49.346Z,18.89
2018-03-25T12:19:49.217Z,18.69
2018-03-25T12:20:49.243Z,18.17
2018-03-25T12:21:49.039Z,17.68
2018-03-25T12:22:49.052Z,17.27
2018-03-25T12:23:48.910Z,16.88
2018-03-25T12:24:48.856Z,16.69
2018-03-25T12:25:48.769Z,16.37
2018-03-25T12:26:48.783Z,16.37
2018-03-25T12:27:48.598Z,16.11
2018-03-25T12:28:48.653Z,16.42
2018-03-25T12:29:48.474Z,16.66
2018-03-25T12:30:48.491Z,16.91
2018-03-25T12:31:48.379Z,17.09
2018-03-25T12:32:48.304Z,17.30
2018-03-25T12:33:48.162Z,17.40
2018-03-25T12:34:48.180Z,17.07
2018-03-25T12:35:48.006Z,17.22
2018-03-25T12:38:29.819Z,16.95
2018-03-25T12:39:29.779Z,16.70
2018-03-25T12:40:29.689Z,16.81
2018-03-25T12:41:29.728Z,17.03
2018-03-25T12:42:29.537Z,17.05
2018-03-25T12:43:29.544Z,16.81
2018-03-25T12:44:29.380Z,16.48
2018-03-25T12:45:29.341Z,16.06
2018-03-25T12:46:29.221Z,16.06
2018-03-25T12:47:29.261Z,15.74
2018-03-25T12:48:29.081Z,16.06
2018-03-25T12:49:29.103Z,16.45
2018-03-25T12:50:28.908Z,16.47
2018-03-25T12:51:28.872Z,16.07
2018-03-25T12:52:28.810Z,16.06
2018-03-25T12:53:28.777Z,16.01
2018-03-25T12:54:28.600Z,16.06
2018-03-25T12:55:28.619Z,15.74
2018-03-25T12:56:28.452Z,15.92
2018-03-25T13:06:51.946Z,17.12
2018-03-25T13:07:51.918Z,17.14
2018-03-25T13:08:51.895Z,16.98
2018-03-25T13:09:51.761Z,16.92
2018-03-25T13:10:51.642Z,16.45
2018-03-25T13:11:51.637Z,15.93
2018-03-25T13:12:51.446Z,15.89
2018-03-25T13:13:51.440Z,15.86
2018-03-25T13:14:51.341Z,15.89
2018-03-25T13:15:51.441Z,15.67
2018-03-25T13:16:51.160Z,15.51
2018-03-25T13:17:51.151Z,15.20
2018-03-25T13:18:51.000Z,15.20
2018-03-25T13:19:50.976Z,15.11
2018-03-25T13:20:50.865Z,15.09
2018-03-25T13:21:50.876Z,15.23
2018-03-25T13:22:50.693Z,15.19
2018-03-25T13:23:50.695Z,15.31
2018-03-25T13:24:50.535Z,15.46
2018-03-25T13:25:50.536Z,15.78
2018-03-25T13:26:50.380Z,15.96
2018-03-25T13:27:50.410Z,16.03
2018-03-25T13:28:50.233Z,15.80
2018-03-25T13:29:50.218Z,15.98
2018-03-25T13:30:50.106Z,15.88
2018-03-25T13:31:50.240Z,16.10
2018-03-25T13:32:49.936Z,16.10
2018-03-25T13:33:49.927Z,15.95
2018-03-25T13:34:49.830Z,15.88
2018-03-25T13:35:49.768Z,15.67
2018-03-25T13:36:49.609Z,15.80
2018-03-25T13:37:49.654Z,15.95
2018-03-25T13:38:49.489Z,15.96
2018-03-25T13:39:49.460Z,15.98
2018-03-25T13:40:49.336Z,16.27
2018-03-25T13:43:31.351Z,16.37
2018-03-25T13:44:31.469Z,16.52
2018-03-25T13:45:31.205Z,16.23
2018-03-25T13:46:31.217Z,16.08
2018-03-25T13:47:31.048Z,16.13
2018-03-25T13:48:31.079Z,15.89
2018-03-25T13:49:30.888Z,15.84
2018-03-25T13:50:30.915Z,15.95
2018-03-25T13:51:30.763Z,16.14
2018-03-25T13:52:30.704Z,15.98
2018-03-25T13:53:30.582Z,16.22